Flight Track Log - Related Links

Times and Time Zones

All times are in EDT time to prevent confusion due to time zone crossing. See the C-GYSR flight status page for this flight to view local times or setup timezone preferences in your user account.

Time Position Orientation Groundspeed Altitude Reporting Facility
EDT Latitude Longitude Course Direction KTS MPH feet Rate Location/Type
Thu 04:56:00 PM 58.4224 -94.0976 193° South  Level FlightAware Approximate
Thu 04:57:00 PM 58.3592 -94.1288 195° South  Level FlightAware Approximate
Thu 04:58:00 PM 58.2962 -94.1603 195° South  Level FlightAware Approximate
Thu 04:59:00 PM 58.2331 -94.1913 194° South  Level FlightAware Approximate
Thu 05:00:00 PM 58.1698 -94.2210 194° South  Level FlightAware Approximate
Thu 05:01:00 PM 58.1064 -94.2505 194° South  Level FlightAware Approximate
Thu 05:02:00 PM 58.0431 -94.2800 194° South  Level FlightAware Approximate
Thu 05:03:00 PM 57.9796 -94.3077 191° South  Level FlightAware Approximate
Thu 05:04:00 PM 57.9157 -94.3317 191° South  Level FlightAware Approximate
Thu 05:05:00 PM 57.8519 -94.3568 194° South  Level FlightAware Approximate
Thu 05:06:00 PM 57.7885 -94.3857 194° South  Level FlightAware Approximate
Thu 05:06:21 PM 57.9500 -94.3167 194° South 320 368 22,000  Level Winnipeg Center
Thu 05:07:00 PM 57.7251 -94.4145 194° South  Level FlightAware Approximate
Thu 05:08:00 PM 57.6618 -94.4432 194° South  Level FlightAware Approximate
Thu 05:08:21 PM 57.8167 -94.3833 195° South 260 299 22,000  Level Winnipeg Center
Thu 05:09:00 PM 57.5984 -94.4717 194° South  Level FlightAware Approximate
Thu 05:09:21 PM 57.7333 -94.4000 186° South 270 311 22,000  Level Winnipeg Center
Thu 05:10:00 PM 57.5350 -94.5002 194° South  Level FlightAware Approximate
Thu 05:10:21 PM 57.6667 -94.4667 208° Southwest 270 311 22,000  Level Winnipeg Center
Thu 05:11:00 PM 57.4716 -94.5286 194° South  Level FlightAware Approximate
Thu 05:11:21 PM 57.6000 -94.4667 180° South 260 299 22,000  Level Winnipeg Center
Thu 05:12:21 PM 57.5333 -94.5000 195° South 260 299 22,000  Level Winnipeg Center
Thu 05:13:21 PM 57.4667 -94.5333 195° South 260 299 22,000  Level Winnipeg Center
Thu 05:14:21 PM 57.4000 -94.5667 195° South 260 299 22,000  Level Winnipeg Center
Thu 05:15:21 PM 57.3167 -94.6000 192° South 260 299 22,000  Level Winnipeg Center
Thu 05:16:21 PM 57.2500 -94.6167 188° South 260 299 22,000  Level Winnipeg Center
Thu 05:17:21 PM 57.1833 -94.6500 195° South 260 299 22,000  Level Winnipeg Center
Thu 05:18:21 PM 57.1167 -94.6833 195° South 260 299 22,000  Level Winnipeg Center
Thu 05:19:21 PM 57.0333 -94.7167 192° South 260 299 22,000  Level Winnipeg Center
Thu 05:20:21 PM 56.9667 -94.7500 195° South 260 299 22,000  Level Winnipeg Center
Thu 05:21:21 PM 56.9000 -94.7833 195° South 260 299 22,000  Level Winnipeg Center
Thu 05:22:21 PM 56.8333 -94.8167 195° South 260 299 22,000  Level Winnipeg Center
Thu 05:23:21 PM 56.7667 -94.8167 180° South 260 299 22,000  Level Winnipeg Center
Thu 05:24:21 PM 56.6833 -94.8667 198° South 260 299 22,000  Level Winnipeg Center
Thu 05:25:21 PM 56.6167 -94.9000 195° South 260 299 22,000  Level Winnipeg Center
Thu 05:26:21 PM 56.5500 -94.9333 195° South 250 288 22,000  Level Winnipeg Center
Thu 05:27:21 PM 56.4833 -94.9667 195° South 260 299 22,000  Level Winnipeg Center
Thu 05:28:21 PM 56.4167 -95.0000 195° South 260 299 22,000  Level Winnipeg Center
Thu 05:29:21 PM 56.3333 -95.0333 193° South 260 299 22,000  Level Winnipeg Center
Thu 05:30:21 PM 56.2667 -95.0333 180° South 260 299 22,000  Level Winnipeg Center
Thu 05:31:21 PM 56.2000 -95.0667 196° South 260 299 22,000  Level Winnipeg Center
Thu 05:32:21 PM 56.1333 -95.1000 196° South 260 299 22,000  Level Winnipeg Center
Thu 05:33:21 PM 56.0500 -95.1333 193° South 260 299 22,000  Level Winnipeg Center
Thu 05:34:21 PM 55.9833 -95.1667 196° South 260 299 22,000  Level Winnipeg Center
Thu 05:35:21 PM 55.9167 -95.2000 196° South 260 299 22,000  Level Winnipeg Center
Thu 05:36:21 PM 55.8500 -95.2333 196° South 260 299 22,000  Level Winnipeg Center
Thu 05:37:21 PM 55.7833 -95.2333 180° South 260 299 22,000  Level Winnipeg Center
Thu 05:38:21 PM 55.7000 -95.2667 193° South 260 299 22,000 -200 Level Winnipeg Center
Thu 05:39:21 PM 55.6333 -95.3000 196° South 260 299 21,600 -550 Descending Winnipeg Center
Thu 05:40:21 PM 55.5667 -95.3333 196° South 270 311 20,900 -700 Descending Winnipeg Center
Thu 05:41:21 PM 55.4833 -95.3667 193° South 270 311 20,200 -450 Descending Winnipeg Center
Thu 05:42:21 PM 55.4333 -95.4000 201° Southwest 270 311 20,000 -100 Descending Winnipeg Center
Thu 05:43:21 PM 55.3667 -95.4333 196° South 260 299 20,000  Level Winnipeg Center
Thu 05:44:21 PM 55.2833 -95.4333 180° South 250 288 20,000  Level Winnipeg Center
Thu 05:45:21 PM 55.2333 -95.4667 201° Southwest 250 288 20,000  Level Winnipeg Center
Thu 05:46:21 PM 55.1667 -95.5000 196° South 250 288 20,000  Level Winnipeg Center
Thu 05:47:21 PM 55.0833 -95.5333 193° South 250 288 20,000  Level Winnipeg Center
Thu 05:48:21 PM 55.0167 -95.5667 196° South 250 288 20,000  Level Winnipeg Center
Thu 05:49:21 PM 54.9500 -95.6000 196° South 250 288 20,000  Level Winnipeg Center
Thu 05:50:21 PM 54.8833 -95.6000 180° South 250 288 20,000  Level Winnipeg Center
Thu 05:51:21 PM 54.8167 -95.6333 196° South 250 288 20,000  Level Winnipeg Center
Thu 05:52:21 PM 54.7500 -95.6500 188° South 240 276 20,000  Level Winnipeg Center
Thu 05:53:21 PM 54.6833 -95.6833 196° South 240 276 20,000  Level Winnipeg Center
Thu 05:54:21 PM 54.6167 -95.7167 196° South 240 276 20,000  Level Winnipeg Center
Thu 05:55:21 PM 54.5667 -95.7167 180° South 240 276 20,000  Level Winnipeg Center
Thu 05:56:21 PM 54.4833 -95.7500 193° South 240 276 20,000  Level Winnipeg Center
Thu 05:57:21 PM 54.4333 -95.7833 201° Southwest 240 276 20,000  Level Winnipeg Center
Thu 05:58:21 PM 54.3667 -95.8167 196° South 240 276 20,000  Level Winnipeg Center
Thu 05:59:21 PM 54.3000 -95.8500 196° South 240 276 20,000  Level Winnipeg Center
Thu 06:00:21 PM 54.2333 -95.8500 180° South 250 288 20,000  Level Winnipeg Center
Thu 06:01:21 PM 54.1667 -95.8833 196° South 240 276 20,000  Level Winnipeg Center
Thu 06:02:21 PM 54.1000 -95.9000 188° South 240 276 20,000  Level Winnipeg Center
Thu 06:03:21 PM 54.0167 -95.9333 193° South 240 276 20,000  Level Winnipeg Center
Thu 06:04:21 PM 53.9500 -95.9667 196° South 240 276 20,000  Level Winnipeg Center
Thu 06:05:21 PM 53.8833 -95.9667 180° South 240 276 20,000  Level Winnipeg Center
Thu 06:06:21 PM 53.8167 -96.0000 196° South 240 276 20,000  Level Winnipeg Center
Thu 06:07:21 PM 53.7500 -96.0333 196° South 230 265 20,000  Level Winnipeg Center
Thu 06:08:21 PM 53.7000 -96.0667 202° Southwest 240 276 20,000  Level Winnipeg Center
Thu 06:09:21 PM 53.6333 -96.0667 180° South 230 265 20,000  Level Winnipeg Center
Thu 06:10:21 PM 53.5667 -96.0833 188° South 230 265 20,000  Level Winnipeg Center
Thu 06:11:21 PM 53.5000 -96.1167 197° South 240 276 20,000  Level Winnipeg Center
Thu 06:12:21 PM 53.4333 -96.1500 197° South 230 265 20,000  Level Winnipeg Center
Thu 06:13:21 PM 53.3833 -96.1833 202° Southwest 230 265 20,000  Level Winnipeg Center
Thu 06:14:21 PM 53.3167 -96.1833 180° South 230 265 20,000  Level Winnipeg Center
Thu 06:15:21 PM 53.2500 -96.2000 189° South 230 265 20,000  Level Winnipeg Center
Thu 06:16:21 PM 53.1833 -96.2333 197° South 230 265 20,000  Level Winnipeg Center
Thu 06:17:21 PM 53.1167 -96.2333 180° South 230 265 20,000 250 Level Winnipeg Center
Thu 06:18:21 PM 53.0667 -96.2667 202° Southwest 230 265 20,500  Climbing Winnipeg Center
Thu 06:25:21 PM 52.6000 -96.4333 192° South 250 288 20,000 -63 Descending Winnipeg Center
Thu 06:26:21 PM 52.5333 -96.4667 197° South 240 276 20,000  Level Winnipeg Center
Thu 06:27:00 PM 52.5172 -96.4768 193° South  Level FlightAware Approximate
Thu 06:27:21 PM 52.4833 -96.5000 202° Southwest 240 276 20,000  Level Winnipeg Center
Thu 06:28:00 PM 52.4533 -96.4993 192° South  Level FlightAware Approximate
Thu 06:28:21 PM 52.4167 -96.5333 197° South 240 276 20,000  Level Winnipeg Center
Thu 06:29:00 PM 52.3895 -96.5212 192° South  Level FlightAware Approximate
Thu 06:29:21 PM 52.3500 -96.5333 180° South 240 276 20,000  Level Winnipeg Center
Thu 06:30:00 PM 52.3257 -96.5429 192° South  Level FlightAware Approximate
Thu 06:30:21 PM 52.2833 -96.5500 189° South 240 276 20,000  Level Winnipeg Center
Thu 06:31:21 PM 52.2000 -96.5833 194° South 240 276 20,000  Level Winnipeg Center
Thu 06:32:21 PM 52.1500 -96.6167 202° Southwest 240 276 20,000  Level Winnipeg Center
Thu 06:33:21 PM 52.0833 -96.6333 189° South 240 276 20,000  Level Winnipeg Center
Thu 06:34:21 PM 52.0167 -96.6333 180° South 240 276 20,000  Level Winnipeg Center
Thu 06:35:21 PM 51.9500 -96.6667 197° South 240 276 20,000  Level Winnipeg Center
Thu 06:36:21 PM 51.8833 -96.7000 197° South 250 288 20,000  Level Winnipeg Center
Thu 06:37:21 PM 51.8167 -96.7167 189° South 250 288 20,000  Level Winnipeg Center
Thu 06:38:21 PM 51.7500 -96.7500 197° South 250 288 20,000  Level Winnipeg Center
Thu 06:39:21 PM 51.6833 -96.7500 180° South 250 288 20,000  Level Winnipeg Center
Thu 06:40:21 PM 51.6167 -96.7833 197° South 250 288 20,000  Level Winnipeg Center
Thu 06:41:21 PM 51.5500 -96.8000 189° South 250 288 20,000  Level Winnipeg Center
Thu 06:42:21 PM 51.4833 -96.8333 197° South 250 288 20,000  Level Winnipeg Center
Thu 06:43:21 PM 51.4000 -96.8500 187° South 250 288 20,000  Level Winnipeg Center
Thu 06:44:21 PM 51.3333 -96.8833 197° South 250 288 20,000  Level Winnipeg Center
Thu 06:45:21 PM 51.2667 -96.8833 180° South 250 288 20,000  Level Winnipeg Center
Thu 06:46:21 PM 51.2000 -96.9167 197° South 250 288 20,000  Level Winnipeg Center
Thu 06:47:21 PM 51.1333 -96.9333 189° South 250 288 20,000  Level Winnipeg Center
Thu 06:48:21 PM 51.0667 -96.9667 197° South 250 288 20,000  Level Winnipeg Center
Thu 06:49:21 PM 51.0000 -97.0000 197° South 250 288 20,000  Level Winnipeg Center
Thu 06:50:21 PM 50.9333 -97.0167 189° South 250 288 20,000  Level Winnipeg Center
Thu 06:51:21 PM 50.8667 -97.0167 180° South 250 288 20,000 -600 Level Winnipeg Center
Thu 06:52:21 PM 50.8000 -97.0500 198° South 250 288 18,800 -1,300 Descending Winnipeg Center
Thu 06:53:21 PM 50.7167 -97.0667 187° South 270 311 17,400 -1,500 Descending Winnipeg Center
Thu 06:54:21 PM 50.6500 -97.1000 198° South 280 322 15,800 -1,750 Descending Winnipeg Center
Thu 06:55:21 PM 50.5667 -97.1167 187° South 280 322 13,900 -1,800 Descending Winnipeg Center
Thu 06:56:21 PM 50.5000 -97.1500 198° South 280 322 12,200 -1,650 Descending Winnipeg Center
Thu 06:57:21 PM 50.4167 -97.1833 194° South 270 311 10,600 -1,550 Descending Winnipeg Center
Thu 06:58:21 PM 50.3500 -97.1833 180° South 270 311 9,100 -1,500 Descending Winnipeg Center
Thu 06:59:21 PM 50.2667 -97.1500 166° South 270 311 7,600 -1,450 Descending Winnipeg Center
Thu 07:00:21 PM 50.2000 -97.1167 162° South 260 299 6,200 -1,200 Descending Winnipeg Center
Thu 07:01:21 PM 50.1333 -97.1167 180° South 260 299 5,200 -600 Descending Winnipeg Center
Thu 07:02:21 PM 50.0667 -97.1000 171° South 240 276 5,000 -250 Descending Winnipeg Center
Thu 07:03:21 PM 50.0000 -97.1000 180° South 240 276 4,700 -500 Descending Winnipeg Center
Thu 07:04:21 PM 49.9333 -97.1000 180° South 230 265 4,000 -600 Descending Winnipeg Center
Thu 07:05:21 PM 49.8667 -97.1000 180° South 210 242 3,500 -450 Descending Winnipeg Center
Thu 07:06:21 PM 49.8500 -97.1500 243° Southwest 150 173 3,100 -400 Descending Winnipeg Center
Thu 07:07:21 PM 49.8333 -97.2000 243° Southwest 130 150 2,700 -550 Descending Winnipeg Center
Thu 07:08:21 PM 49.8333 -97.2500 270° West 90 104 2,000 -650 Descending Winnipeg Center
Thu 07:09:21 PM 49.8667 -97.2333 18° North 100 115 1,400 -600 Descending Winnipeg Center
Thu 07:10:21 PM 49.8833 -97.2333 360° North 90 104 800 -233 Descending Winnipeg Center
Thu 07:12:21 PM 49.8833 -97.2333 327° Northwest 20 23 700 -50 Descending Winnipeg Center

Login

Don't have an account? Register now (free) for customized features, flight alerts, and more!